Flight Track Log - Related Links

Times and Time Zones

All times are in EDT time to prevent confusion due to time zone crossing. See the CSN379 flight status page for this flight to view local times or setup timezone preferences in your user account.

Time Position Orientation Groundspeed Altitude Reporting Facility
EDT Latitude Longitude Course Direction KTS MPH feet Rate Location/Type
Wed 06:31:17 AM 31.4090 121.9270 60° Northeast 335 386 11,300  Level FlightAware ADS-B
Wed 06:32:02 AM 31.4480 122.0040 59° Northeast 390 449 12,100 1,765 Climbing FlightAware ADS-B
Wed 06:32:42 AM 31.4850 122.0800 60° Northeast 403 464 13,800 2,400 Climbing FlightAware ADS-B
Wed 06:33:27 AM 31.5280 122.1700 61° Northeast 419 482 15,500 1,140 Climbing FlightAware ADS-B
Wed 06:34:22 AM 31.5790 122.2750 60° Northeast 425 489 15,700 126 Climbing FlightAware ADS-B
Wed 06:35:02 AM 31.6130 122.3430 60° Northeast 425 489 15,700  Level FlightAware ADS-B
Wed 06:35:22 AM 31.6300 122.4070 73° East 435 501 15,700 200 Level FlightAware ADS-B
Wed 06:36:02 AM 31.6410 122.4920 81° East 437 503 15,900 1,341 Climbing FlightAware ADS-B
Wed 06:36:47 AM 31.6550 122.6000 81° East 447 514 17,600 1,906 Climbing FlightAware ADS-B
Wed 06:37:27 AM 31.6680 122.6970 81° East 447 514 18,600 880 Climbing FlightAware ADS-B
Wed 06:38:02 AM 31.6800 122.7860 81° East 460 529 18,700 800 Climbing FlightAware ADS-B
Wed 06:38:42 AM 31.6930 122.8840 81° East 468 539 19,600 1,000 Climbing FlightAware ADS-B
Wed 06:39:32 AM 31.7100 123.0130 81° East 479 551 20,200 400 Climbing FlightAware ADS-B
Wed 06:40:12 AM 31.7200 123.1010 82° East 479 551 20,200  Level FlightAware ADS-B
Wed 06:40:52 AM 31.7310 123.1890 82° East 479 551 20,200  Level FlightAware ADS-B
Wed 06:41:32 AM 31.7410 123.2760 82° East 479 551 20,200  Level FlightAware ADS-B
Wed 06:42:22 AM 31.7540 123.3860 82° East 479 551 20,200  Level FlightAware ADS-B
Wed 06:43:02 AM 31.7650 123.4740 82° East 479 551 20,200 234 Level FlightAware ADS-B
Wed 06:43:12 AM 31.7360 123.6090 104° East 25,000 238 Climbing FlightAware ADS-B
Wed 06:45:00 AM 31.8291 123.9221 71° East  Level Estimated
Wed 06:46:00 AM 31.8806 124.0963 71° East  Level Estimated
Wed 06:47:00 AM 31.9317 124.2706 71° East  Level Estimated
Wed 06:48:00 AM 31.9827 124.4452 71° East  Level Estimated
Wed 06:49:00 AM 32.0334 124.6200 71° East  Level Estimated
Wed 06:50:00 AM 32.0838 124.7950 71° East  Level Estimated
Wed 06:51:00 AM 32.1340 124.9701 71° East  Level Estimated
Wed 06:52:00 AM 32.1840 125.1455 71° East  Level Estimated
Wed 06:53:00 AM 32.2337 125.3210 71° East  Level Estimated
Wed 06:54:00 AM 32.2832 125.4968 72° East  Level Estimated
Wed 06:55:00 AM 32.3325 125.6727 72° East  Level Estimated
Wed 06:56:00 AM 32.3815 125.8488 72° East  Level Estimated
Wed 06:57:00 AM 32.4302 126.0251 72° East  Level Estimated
Wed 06:58:00 AM 32.4788 126.2016 72° East  Level Estimated
Wed 06:59:00 AM 32.5270 126.3783 72° East  Level Estimated
Wed 07:00:00 AM 32.5750 126.5552 72° East  Level Estimated
Wed 07:01:00 AM 32.6228 126.7323 72° East  Level Estimated
Wed 07:02:00 AM 32.6703 126.9095 72° East  Level Estimated
Wed 07:03:00 AM 32.7176 127.0870 72° East  Level Estimated
Wed 07:04:00 AM 32.7646 127.2646 72° East  Level Estimated
Wed 07:05:00 AM 32.8114 127.4424 73° East  Level Estimated
Wed 07:06:00 AM 32.8579 127.6204 73° East  Level Estimated
Wed 07:07:00 AM 32.9042 127.7986 73° East  Level Estimated
Wed 07:08:00 AM 32.9502 127.9770 73° East  Level Estimated
Wed 07:09:00 AM 32.9959 128.1556 73° East  Level Estimated
Wed 07:10:00 AM 33.0415 128.3343 73° East  Level Estimated
Wed 07:11:00 AM 33.0867 128.5133 73° East  Level Estimated
Wed 07:12:00 AM 33.1317 128.6924 73° East  Level Estimated
Wed 07:13:00 AM 33.1764 128.8717 73° East  Level Estimated
Wed 07:14:00 AM 33.2209 129.0512 73° East  Level Estimated
Wed 07:15:00 AM 33.2651 129.2309 74° East  Level Estimated
Wed 07:16:00 AM 33.3091 129.4107 74° East  Level Estimated
Wed 07:17:00 AM 33.3528 129.5907 74° East  Level Estimated
Wed 07:18:00 AM 33.3962 129.7709 74° East  Level Estimated
Wed 07:19:00 AM 33.4394 129.9513 74° East  Level Estimated
Wed 07:20:00 AM 33.4823 130.1319 74° East  Level Estimated
Wed 07:20:02 AM 32.8410 129.6790 74° East 551 634 29,000  Level FlightAware ADS-B
Wed 07:20:47 AM 32.8670 129.8080 76° East 550 633 29,000  Level FlightAware ADS-B
Wed 07:21:27 AM 32.8890 129.9230 77° East 549 632 29,000  Level FlightAware ADS-B
Wed 07:22:12 AM 32.9170 130.0660 77° East 548 631 29,000  Level FlightAware ADS-B
Wed 07:22:57 AM 32.9430 130.2000 77° East 548 631 29,000  Level FlightAware ADS-B
Wed 07:23:32 AM 32.9600 130.2920 78° East 547 629 29,000 -525 Level FlightAware ADS-B
Wed 07:24:17 AM 32.9870 130.4320 77° East 541 623 28,300 -918 Descending FlightAware ADS-B
Wed 07:24:57 AM 33.0070 130.5360 77° East 534 615 27,700 -975 Descending FlightAware ADS-B
Wed 07:25:37 AM 33.0300 130.6620 78° East 516 594 27,000 -988 Descending FlightAware ADS-B
Wed 07:26:22 AM 33.0530 130.7830 77° East 500 575 26,300 -918 Descending FlightAware ADS-B
Wed 07:27:02 AM 33.0730 130.8930 78° East 491 565 25,700 -900 Descending FlightAware ADS-B
Wed 07:27:42 AM 33.0920 130.9950 77° East 480 552 25,100 -494 Descending FlightAware ADS-B
Wed 07:28:27 AM 33.1130 131.1100 78° East 492 566 25,000 -71 Descending FlightAware ADS-B
Wed 07:29:07 AM 33.1330 131.2200 78° East 495 570 25,000  Level FlightAware ADS-B
Wed 07:29:52 AM 33.1550 131.3390 78° East 497 572 25,000  Level FlightAware ADS-B
Wed 07:30:32 AM 33.1750 131.4490 78° East 498 573 25,000  Level FlightAware ADS-B
Wed 07:31:17 AM 33.1970 131.5690 78° East 496 571 25,000  Level FlightAware ADS-B
Wed 07:31:57 AM 33.2150 131.6730 78° East 492 566 25,000  Level FlightAware ADS-B
Wed 07:33:57 AM 33.2700 131.9910 67° East 500 575 25,000  Level FlightAware ADS-B
Wed 07:34:00 AM 33.3376 132.0280 67° East  Level Estimated
Wed 07:34:47 AM 33.2920 132.1260 79° East 501 577 25,000  Level FlightAware ADS-B
Wed 07:37:00 AM 33.4288 132.5081 67° East  Level Estimated
Wed 07:38:00 AM 33.4901 132.6809 67° East  Level Estimated
Wed 07:39:00 AM 33.5512 132.8539 67° East  Level Estimated
Wed 07:40:00 AM 33.6120 133.0271 67° East  Level Estimated
Wed 07:41:00 AM 33.6726 133.2006 67° East  Level Estimated
Wed 07:42:00 AM 33.7330 133.3744 67° East  Level Estimated
Wed 07:43:00 AM 33.7931 133.5484 67° East  Level Estimated
Wed 07:44:00 AM 33.8530 133.7226 67° East  Level Estimated
Wed 07:45:00 AM 33.9126 133.8971 68° East  Level Estimated
Wed 07:45:57 AM 33.6760 133.9120 68° East 499 574 25,000  Level FlightAware ADS-B
Wed 07:46:00 AM 33.9720 134.0718 68° East  Level Estimated
Wed 07:46:37 AM 33.6990 134.0230 76° East 500 575 25,000  Level FlightAware ADS-B
Wed 07:47:37 AM 33.7030 134.1920 88° East 501 577 25,000  Level FlightAware ADS-B
Wed 07:48:17 AM 33.7020 134.3040 91° East 502 578 25,000  Level FlightAware ADS-B
Wed 07:48:57 AM 33.7000 134.4130 91° East 502 578 25,000  Level FlightAware ADS-B
Wed 07:49:42 AM 33.6970 134.5390 92° East 500 575 25,000  Level FlightAware ADS-B
Wed 07:50:22 AM 33.6950 134.6480 91° East 500 575 25,000  Level FlightAware ADS-B
Wed 07:51:07 AM 33.6920 134.7750 92° East 500 575 25,000  Level FlightAware ADS-B
Wed 07:51:47 AM 33.6900 134.8860 91° East 500 575 25,000  Level FlightAware ADS-B
Wed 07:52:22 AM 33.6880 134.9830 91° East 501 577 25,000 71 Level FlightAware ADS-B
Wed 07:53:12 AM 33.7180 135.1140 75° East 500 575 25,100 -200 Climbing FlightAware ADS-B
Wed 07:53:52 AM 33.7610 135.2120 62° Northeast 485 558 24,700 -975 Descending FlightAware ADS-B
Wed 07:54:32 AM 33.8020 135.3040 62° Northeast 463 533 23,800 -1,765 Descending FlightAware ADS-B
Wed 07:55:17 AM 33.8460 135.4040 62° Northeast 450 518 22,200 -2,118 Descending FlightAware ADS-B
Wed 07:55:57 AM 33.8860 135.4950 62° Northeast 443 510 20,800 -1,971 Descending FlightAware ADS-B
Wed 07:56:27 AM 33.9140 135.5570 61° Northeast 433 498 19,900 -1,846 Descending FlightAware ADS-B
Wed 07:57:02 AM 33.9460 135.6310 62° Northeast 422 486 18,800 -1,840 Descending FlightAware ADS-B
Wed 07:57:42 AM 33.9830 135.7140 62° Northeast 413 475 17,600 -1,835 Descending FlightAware ADS-B
Wed 07:58:27 AM 34.0220 135.8020 62° Northeast 403 464 16,200 -1,906 Descending FlightAware ADS-B
Wed 07:59:07 AM 34.0550 135.8790 63° Northeast 396 456 14,900 -1,800 Descending FlightAware ADS-B
Wed 07:59:47 AM 34.0900 135.9570 62° Northeast 390 449 13,800 -1,835 Descending FlightAware ADS-B
Wed 08:00:32 AM 34.1280 136.0450 62° Northeast 377 434 12,300 -1,642 Descending FlightAware ADS-B
Wed 08:01:22 AM 34.1660 136.1320 62° Northeast 370 426 11,200 -632 Descending FlightAware ADS-B
Wed 08:02:07 AM 34.1990 136.2110 63° Northeast 370 426 11,300 133 Climbing FlightAware ADS-B
Wed 08:04:00 AM 34.4362 136.4234 36° Northeast  Level Estimated
Wed 08:05:00 AM 34.5620 136.5367 37° Northeast  Level Estimated
Wed 08:06:00 AM 34.6876 136.6503 37° Northeast  Level Estimated
Wed 08:07:00 AM 34.8132 136.7642 37° Northeast  Level Estimated
Wed 08:08:00 AM 34.8583 136.8053 37° Northeast  Level Estimated
Wed 08:09:00 AM 34.8583 136.8053 331° Northwest  Level Estimated
Wed 08:10:00 AM 34.8583 136.8053 331° Northwest  Level Estimated
Wed 08:11:00 AM 34.8583 136.8053 331° Northwest  Level Estimated

Login

Don't have an account? Register now (free) for customized features, flight alerts, and more!